sensor_id;sensor_type;location;lat;lon;timestamp;P1;durP1;ratioP1;P2;durP2;ratioP2
10987;SDS011;5547;42.672;23.230;2022-08-11T00:02:00;12.63;;;11.63;;
10987;SDS011;5547;42.672;23.230;2022-08-11T00:04:28;12.83;;;11.83;;
10987;SDS011;5547;42.672;23.230;2022-08-11T00:07:01;12.67;;;11.57;;
10987;SDS011;5547;42.672;23.230;2022-08-11T00:09:32;14.23;;;13.03;;
10987;SDS011;5547;42.672;23.230;2022-08-11T00:12:01;14.53;;;13.43;;
10987;SDS011;5547;42.672;23.230;2022-08-11T00:14:28;15.40;;;14.13;;
10987;SDS011;5547;42.672;23.230;2022-08-11T00:16:57;15.53;;;14.23;;
10987;SDS011;5547;42.672;23.230;2022-08-11T00:19:25;14.80;;;13.57;;
10987;SDS011;5547;42.672;23.230;2022-08-11T00:21:54;14.90;;;13.70;;
10987;SDS011;5547;42.672;23.230;2022-08-11T00:24:20;15.67;;;14.30;;
10987;SDS011;5547;42.672;23.230;2022-08-11T00:26:51;14.83;;;13.67;;
10987;SDS011;5547;42.672;23.230;2022-08-11T00:29:18;14.10;;;13.00;;
10987;SDS011;5547;42.672;23.230;2022-08-11T00:31:46;13.27;;;12.30;;
10987;SDS011;5547;42.672;23.230;2022-08-11T00:34:31;12.97;;;12.00;;
10987;SDS011;5547;42.672;23.230;2022-08-11T00:37:05;12.60;;;11.70;;
10987;SDS011;5547;42.672;23.230;2022-08-11T00:39:33;13.63;;;12.53;;
10987;SDS011;5547;42.672;23.230;2022-08-11T00:42:15;13.00;;;12.10;;
10987;SDS011;5547;42.672;23.230;2022-08-11T01:04:55;13.77;;;12.67;;
10987;SDS011;5547;42.672;23.230;2022-08-11T01:21:43;14.53;;;13.43;;
10987;SDS011;5547;42.672;23.230;2022-08-11T01:30:06;14.90;;;13.80;;
10987;SDS011;5547;42.672;23.230;2022-08-11T01:41:29;16.10;;;14.83;;
10987;SDS011;5547;42.672;23.230;2022-08-11T01:47:25;15.40;;;14.20;;
10987;SDS011;5547;42.672;23.230;2022-08-11T01:55:27;16.63;;;15.33;;
10987;SDS011;5547;42.672;23.230;2022-08-11T02:03:39;16.67;;;15.17;;
10987;SDS011;5547;42.672;23.230;2022-08-11T02:15:19;18.13;;;16.53;;
10987;SDS011;5547;42.672;23.230;2022-08-11T02:20:44;19.03;;;17.43;;
10987;SDS011;5547;42.672;23.230;2022-08-11T02:34:21;19.27;;;17.67;;
10987;SDS011;5547;42.672;23.230;2022-08-11T02:36:59;19.17;;;17.57;;
10987;SDS011;5547;42.672;23.230;2022-08-11T02:39:40;18.67;;;17.17;;
10987;SDS011;5547;42.672;23.230;2022-08-11T02:42:30;20.23;;;18.30;;
10987;SDS011;5547;42.672;23.230;2022-08-11T02:51:48;18.83;;;17.13;;
10987;SDS011;5547;42.672;23.230;2022-08-11T02:54:29;19.10;;;17.40;;
10987;SDS011;5547;42.672;23.230;2022-08-11T02:57:12;18.70;;;17.20;;
10987;SDS011;5547;42.672;23.230;2022-08-11T02:59:56;19.67;;;18.07;;
10987;SDS011;5547;42.672;23.230;2022-08-11T03:02:34;19.00;;;17.30;;
10987;SDS011;5547;42.672;23.230;2022-08-11T03:05:25;18.53;;;16.93;;
10987;SDS011;5547;42.672;23.230;2022-08-11T03:08:17;18.83;;;17.17;;
10987;SDS011;5547;42.672;23.230;2022-08-11T03:11:11;18.90;;;17.30;;
10987;SDS011;5547;42.672;23.230;2022-08-11T03:16:57;19.67;;;17.97;;
10987;SDS011;5547;42.672;23.230;2022-08-11T03:19:38;19.83;;;18.03;;
10987;SDS011;5547;42.672;23.230;2022-08-11T03:22:12;19.87;;;18.03;;
10987;SDS011;5547;42.672;23.230;2022-08-11T03:24:57;19.90;;;17.90;;
10987;SDS011;5547;42.672;23.230;2022-08-11T03:38:58;19.23;;;17.63;;
10987;SDS011;5547;42.672;23.230;2022-08-11T03:41:33;18.77;;;17.10;;
10987;SDS011;5547;42.672;23.230;2022-08-11T03:44:19;19.20;;;17.37;;
10987;SDS011;5547;42.672;23.230;2022-08-11T03:55:17;20.47;;;18.67;;
10987;SDS011;5547;42.672;23.230;2022-08-11T04:48:35;8.43;;;7.83;;
10987;SDS011;5547;42.672;23.230;2022-08-11T04:57:43;8.30;;;7.70;;
10987;SDS011;5547;42.672;23.230;2022-08-11T05:00:40;7.50;;;6.90;;
10987;SDS011;5547;42.672;23.230;2022-08-11T05:09:06;7.60;;;7.10;;
10987;SDS011;5547;42.672;23.230;2022-08-11T05:14:37;7.40;;;6.73;;
10987;SDS011;5547;42.672;23.230;2022-08-11T05:17:26;7.20;;;6.70;;
10987;SDS011;5547;42.672;23.230;2022-08-11T05:20:18;6.93;;;6.33;;
10987;SDS011;5547;42.672;23.230;2022-08-11T05:23:05;6.20;;;5.70;;
10987;SDS011;5547;42.672;23.230;2022-08-11T05:25:54;7.63;;;6.97;;
10987;SDS011;5547;42.672;23.230;2022-08-11T05:28:50;7.20;;;6.70;;
10987;SDS011;5547;42.672;23.230;2022-08-11T05:31:38;6.60;;;6.13;;
10987;SDS011;5547;42.672;23.230;2022-08-11T05:34:27;6.80;;;6.30;;
10987;SDS011;5547;42.672;23.230;2022-08-11T05:40:04;7.43;;;6.83;;
10987;SDS011;5547;42.672;23.230;2022-08-11T05:42:59;7.50;;;6.87;;
10987;SDS011;5547;42.672;23.230;2022-08-11T05:45:55;7.80;;;7.10;;
10987;SDS011;5547;42.672;23.230;2022-08-11T05:48:41;7.30;;;6.60;;
10987;SDS011;5547;42.672;23.230;2022-08-11T05:51:36;9.40;;;6.97;;
10987;SDS011;5547;42.672;23.230;2022-08-11T05:54:23;7.33;;;6.77;;
10987;SDS011;5547;42.672;23.230;2022-08-11T05:57:09;7.27;;;6.70;;
10987;SDS011;5547;42.672;23.230;2022-08-11T05:59:44;6.97;;;6.37;;
10987;SDS011;5547;42.672;23.230;2022-08-11T06:02:10;7.67;;;7.07;;
10987;SDS011;5547;42.672;23.230;2022-08-11T06:04:37;7.40;;;6.70;;
10987;SDS011;5547;42.672;23.230;2022-08-11T06:07:05;7.43;;;6.83;;
10987;SDS011;5547;42.672;23.230;2022-08-11T06:09:38;7.50;;;7.00;;
10987;SDS011;5547;42.672;23.230;2022-08-11T06:12:22;7.37;;;6.77;;
10987;SDS011;5547;42.672;23.230;2022-08-11T06:14:52;6.87;;;6.30;;
10987;SDS011;5547;42.672;23.230;2022-08-11T06:17:26;6.30;;;5.87;;
10987;SDS011;5547;42.672;23.230;2022-08-11T06:20:05;7.17;;;6.57;;
10987;SDS011;5547;42.672;23.230;2022-08-11T06:22:36;5.73;;;5.23;;
10987;SDS011;5547;42.672;23.230;2022-08-11T06:25:03;5.90;;;5.50;;
10987;SDS011;5547;42.672;23.230;2022-08-11T06:27:33;6.00;;;5.43;;
10987;SDS011;5547;42.672;23.230;2022-08-11T06:30:01;5.67;;;5.27;;
10987;SDS011;5547;42.672;23.230;2022-08-11T06:32:37;6.73;;;6.07;;
10987;SDS011;5547;42.672;23.230;2022-08-11T06:35:17;6.27;;;5.77;;
10987;SDS011;5547;42.672;23.230;2022-08-11T06:40:36;6.00;;;5.60;;
10987;SDS011;5547;42.672;23.230;2022-08-11T06:45:52;5.97;;;5.40;;
10987;SDS011;5547;42.672;23.230;2022-08-11T06:48:27;5.27;;;4.97;;
10987;SDS011;5547;42.672;23.230;2022-08-11T06:50:56;5.30;;;4.80;;
10987;SDS011;5547;42.672;23.230;2022-08-11T06:53:38;5.20;;;4.70;;
10987;SDS011;5547;42.672;23.230;2022-08-11T06:56:04;5.77;;;5.20;;
10987;SDS011;5547;42.672;23.230;2022-08-11T06:58:50;5.72;;;5.32;;
10987;SDS011;5547;42.672;23.230;2022-08-11T07:04:10;5.50;;;5.10;;
10987;SDS011;5547;42.672;23.230;2022-08-11T07:06:40;5.53;;;5.00;;
10987;SDS011;5547;42.672;23.230;2022-08-11T07:12:50;7.70;;;6.15;;
10987;SDS011;5547;42.672;23.230;2022-08-11T07:15:39;6.18;;;5.50;;
10987;SDS011;5547;42.672;23.230;2022-08-11T07:18:13;5.50;;;4.95;;
10987;SDS011;5547;42.672;23.230;2022-08-11T07:21:09;5.85;;;5.32;;
10987;SDS011;5547;42.672;23.230;2022-08-11T07:23:57;5.35;;;4.95;;
10987;SDS011;5547;42.672;23.230;2022-08-11T07:26:44;5.32;;;4.85;;
10987;SDS011;5547;42.672;23.230;2022-08-11T07:29:33;5.50;;;5.00;;
10987;SDS011;5547;42.672;23.230;2022-08-11T07:32:04;6.35;;;5.78;;
10987;SDS011;5547;42.672;23.230;2022-08-11T07:34:39;6.45;;;5.85;;
10987;SDS011;5547;42.672;23.230;2022-08-11T07:37:11;5.57;;;5.13;;
10987;SDS011;5547;42.672;23.230;2022-08-11T07:39:42;6.38;;;5.50;;
10987;SDS011;5547;42.672;23.230;2022-08-11T07:42:10;5.68;;;5.28;;
10987;SDS011;5547;42.672;23.230;2022-08-11T07:44:38;4.97;;;4.65;;
10987;SDS011;5547;42.672;23.230;2022-08-11T07:47:23;5.03;;;4.63;;
10987;SDS011;5547;42.672;23.230;2022-08-11T07:50:08;5.00;;;4.60;;
10987;SDS011;5547;42.672;23.230;2022-08-11T07:52:54;5.13;;;4.60;;
10987;SDS011;5547;42.672;23.230;2022-08-11T07:55:22;4.28;;;3.97;;
10987;SDS011;5547;42.672;23.230;2022-08-11T07:57:55;5.07;;;4.68;;
10987;SDS011;5547;42.672;23.230;2022-08-11T08:00:44;4.65;;;4.35;;
10987;SDS011;5547;42.672;23.230;2022-08-11T08:03:31;4.90;;;4.60;;
10987;SDS011;5547;42.672;23.230;2022-08-11T08:06:16;4.60;;;4.30;;
10987;SDS011;5547;42.672;23.230;2022-08-11T08:09:01;4.70;;;4.30;;
10987;SDS011;5547;42.672;23.230;2022-08-11T08:11:46;5.07;;;4.78;;
10987;SDS011;5547;42.672;23.230;2022-08-11T08:14:31;4.68;;;4.25;;
10987;SDS011;5547;42.672;23.230;2022-08-11T08:17:16;4.60;;;4.20;;
10987;SDS011;5547;42.672;23.230;2022-08-11T08:20:01;4.80;;;4.40;;
10987;SDS011;5547;42.672;23.230;2022-08-11T08:22:28;4.70;;;4.30;;
10987;SDS011;5547;42.672;23.230;2022-08-11T08:24:54;4.70;;;4.30;;
10987;SDS011;5547;42.672;23.230;2022-08-11T08:27:20;3.88;;;3.58;;
10987;SDS011;5547;42.672;23.230;2022-08-11T08:29:49;4.65;;;4.35;;
10987;SDS011;5547;42.672;23.230;2022-08-11T08:32:36;6.15;;;4.40;;
10987;SDS011;5547;42.672;23.230;2022-08-11T08:35:04;4.70;;;4.35;;
10987;SDS011;5547;42.672;23.230;2022-08-11T08:37:31;5.03;;;4.63;;
10987;SDS011;5547;42.672;23.230;2022-08-11T08:39:57;4.53;;;4.22;;
10987;SDS011;5547;42.672;23.230;2022-08-11T08:42:24;4.63;;;4.30;;
10987;SDS011;5547;42.672;23.230;2022-08-11T08:44:57;4.70;;;4.40;;
10987;SDS011;5547;42.672;23.230;2022-08-11T08:47:26;4.80;;;4.50;;
10987;SDS011;5547;42.672;23.230;2022-08-11T08:49:59;5.03;;;4.63;;
10987;SDS011;5547;42.672;23.230;2022-08-11T08:52:28;4.82;;;4.43;;
10987;SDS011;5547;42.672;23.230;2022-08-11T08:54:59;5.03;;;4.63;;
10987;SDS011;5547;42.672;23.230;2022-08-11T08:57:28;4.75;;;4.35;;
10987;SDS011;5547;42.672;23.230;2022-08-11T08:59:57;5.22;;;4.60;;
10987;SDS011;5547;42.672;23.230;2022-08-11T09:02:25;4.78;;;4.38;;
10987;SDS011;5547;42.672;23.230;2022-08-11T09:04:51;4.70;;;4.30;;
10987;SDS011;5547;42.672;23.230;2022-08-11T09:07:19;4.57;;;4.20;;
10987;SDS011;5547;42.672;23.230;2022-08-11T09:09:48;4.53;;;4.22;;
10987;SDS011;5547;42.672;23.230;2022-08-11T09:12:16;5.35;;;4.85;;
10987;SDS011;5547;42.672;23.230;2022-08-11T09:14:45;4.75;;;4.45;;
10987;SDS011;5547;42.672;23.230;2022-08-11T09:17:26;5.15;;;4.60;;
10987;SDS011;5547;42.672;23.230;2022-08-11T09:19:58;5.05;;;4.72;;
10987;SDS011;5547;42.672;23.230;2022-08-11T09:22:26;4.65;;;4.22;;
10987;SDS011;5547;42.672;23.230;2022-08-11T09:25:12;4.90;;;4.60;;
10987;SDS011;5547;42.672;23.230;2022-08-11T09:27:57;4.85;;;4.45;;
10987;SDS011;5547;42.672;23.230;2022-08-11T09:30:23;4.80;;;4.50;;
10987;SDS011;5547;42.672;23.230;2022-08-11T09:32:54;4.25;;;3.95;;
10987;SDS011;5547;42.672;23.230;2022-08-11T09:35:22;4.80;;;4.40;;
10987;SDS011;5547;42.672;23.230;2022-08-11T09:37:49;4.63;;;4.18;;
10987;SDS011;5547;42.672;23.230;2022-08-11T09:40:33;5.18;;;3.92;;
10987;SDS011;5547;42.672;23.230;2022-08-11T09:43:02;3.95;;;3.75;;
10987;SDS011;5547;42.672;23.230;2022-08-11T09:45:49;4.32;;;3.90;;
10987;SDS011;5547;42.672;23.230;2022-08-11T09:48:17;4.80;;;4.50;;
10987;SDS011;5547;42.672;23.230;2022-08-11T09:50:47;5.38;;;4.88;;
10987;SDS011;5547;42.672;23.230;2022-08-11T09:53:15;5.55;;;5.15;;
10987;SDS011;5547;42.672;23.230;2022-08-11T09:55:45;5.80;;;5.40;;
10987;SDS011;5547;42.672;23.230;2022-08-11T09:58:12;5.47;;;5.07;;
10987;SDS011;5547;42.672;23.230;2022-08-11T10:00:38;5.90;;;5.30;;
10987;SDS011;5547;42.672;23.230;2022-08-11T10:03:15;5.35;;;4.90;;
10987;SDS011;5547;42.672;23.230;2022-08-11T10:05:43;5.75;;;5.30;;
10987;SDS011;5547;42.672;23.230;2022-08-11T10:08:30;5.60;;;5.20;;
10987;SDS011;5547;42.672;23.230;2022-08-11T10:10:59;5.90;;;5.50;;
10987;SDS011;5547;42.672;23.230;2022-08-11T10:13:29;6.40;;;5.80;;
10987;SDS011;5547;42.672;23.230;2022-08-11T10:16:17;5.70;;;5.30;;
10987;SDS011;5547;42.672;23.230;2022-08-11T10:18:46;6.18;;;5.50;;
10987;SDS011;5547;42.672;23.230;2022-08-11T10:21:25;5.65;;;5.18;;
10987;SDS011;5547;42.672;23.230;2022-08-11T10:24:05;5.72;;;5.32;;
10987;SDS011;5547;42.672;23.230;2022-08-11T10:26:51;5.72;;;5.22;;
10987;SDS011;5547;42.672;23.230;2022-08-11T10:29:29;6.00;;;5.45;;
10987;SDS011;5547;42.672;23.230;2022-08-11T10:32:16;4.30;;;4.00;;
10987;SDS011;5547;42.672;23.230;2022-08-11T10:35:04;4.97;;;4.57;;
10987;SDS011;5547;42.672;23.230;2022-08-11T10:37:33;5.63;;;5.15;;
10987;SDS011;5547;42.672;23.230;2022-08-11T10:40:02;5.13;;;4.72;;
10987;SDS011;5547;42.672;23.230;2022-08-11T10:42:30;4.40;;;4.07;;
10987;SDS011;5547;42.672;23.230;2022-08-11T10:45:14;5.13;;;4.63;;
10987;SDS011;5547;42.672;23.230;2022-08-11T10:48:00;5.13;;;4.72;;
10987;SDS011;5547;42.672;23.230;2022-08-11T10:50:28;5.18;;;4.40;;
10987;SDS011;5547;42.672;23.230;2022-08-11T10:53:13;5.30;;;4.90;;
10987;SDS011;5547;42.672;23.230;2022-08-11T10:55:57;5.03;;;4.18;;
10987;SDS011;5547;42.672;23.230;2022-08-11T10:58:42;4.72;;;4.38;;
10987;SDS011;5547;42.672;23.230;2022-08-11T11:01:20;4.78;;;4.38;;
10987;SDS011;5547;42.672;23.230;2022-08-11T11:03:53;5.28;;;4.38;;
10987;SDS011;5547;42.672;23.230;2022-08-11T11:11:50;4.90;;;4.50;;
10987;SDS011;5547;42.672;23.230;2022-08-11T11:14:39;5.13;;;4.70;;
10987;SDS011;5547;42.672;23.230;2022-08-11T11:17:34;10.82;;;9.88;;
10987;SDS011;5547;42.672;23.230;2022-08-11T11:20:21;5.75;;;4.07;;
10987;SDS011;5547;42.672;23.230;2022-08-11T11:22:54;4.53;;;4.13;;
10987;SDS011;5547;42.672;23.230;2022-08-11T11:25:24;7.60;;;7.00;;
10987;SDS011;5547;42.672;23.230;2022-08-11T11:31:10;5.47;;;4.47;;
10987;SDS011;5547;42.672;23.230;2022-08-11T11:36:47;4.88;;;4.57;;
10987;SDS011;5547;42.672;23.230;2022-08-11T11:39:22;4.70;;;3.95;;
10987;SDS011;5547;42.672;23.230;2022-08-11T11:41:51;4.10;;;3.83;;
10987;SDS011;5547;42.672;23.230;2022-08-11T11:44:20;4.55;;;4.22;;
10987;SDS011;5547;42.672;23.230;2022-08-11T11:46:49;4.03;;;3.72;;
10987;SDS011;5547;42.672;23.230;2022-08-11T11:49:21;4.40;;;4.00;;
10987;SDS011;5547;42.672;23.230;2022-08-11T11:51:49;4.40;;;4.00;;
10987;SDS011;5547;42.672;23.230;2022-08-11T11:54:20;4.32;;;4.00;;
10987;SDS011;5547;42.672;23.230;2022-08-11T11:56:48;4.38;;;3.97;;
10987;SDS011;5547;42.672;23.230;2022-08-11T11:59:17;4.93;;;4.00;;
10987;SDS011;5547;42.672;23.230;2022-08-11T12:02:03;4.22;;;3.92;;
10987;SDS011;5547;42.672;23.230;2022-08-11T12:04:31;4.75;;;4.30;;
10987;SDS011;5547;42.672;23.230;2022-08-11T12:06:56;4.43;;;4.13;;
10987;SDS011;5547;42.672;23.230;2022-08-11T12:09:43;4.60;;;4.20;;
10987;SDS011;5547;42.672;23.230;2022-08-11T12:12:11;4.10;;;3.80;;
10987;SDS011;5547;42.672;23.230;2022-08-11T12:14:55;3.70;;;3.45;;
10987;SDS011;5547;42.672;23.230;2022-08-11T12:17:21;4.68;;;3.47;;
10987;SDS011;5547;42.672;23.230;2022-08-11T12:19:47;3.88;;;3.53;;
10987;SDS011;5547;42.672;23.230;2022-08-11T12:22:13;4.38;;;3.95;;
10987;SDS011;5547;42.672;23.230;2022-08-11T12:24:58;4.03;;;3.72;;
10987;SDS011;5547;42.672;23.230;2022-08-11T12:27:43;3.63;;;3.33;;
10987;SDS011;5547;42.672;23.230;2022-08-11T12:30:09;3.97;;;3.67;;
10987;SDS011;5547;42.672;23.230;2022-08-11T12:32:35;4.30;;;3.97;;
10987;SDS011;5547;42.672;23.230;2022-08-11T12:35:03;4.18;;;3.60;;
10987;SDS011;5547;42.672;23.230;2022-08-11T12:37:32;3.80;;;3.50;;
10987;SDS011;5547;42.672;23.230;2022-08-11T12:40:02;4.50;;;4.20;;
10987;SDS011;5547;42.672;23.230;2022-08-11T12:42:50;3.88;;;3.58;;
10987;SDS011;5547;42.672;23.230;2022-08-11T12:45:35;4.85;;;3.40;;
10987;SDS011;5547;42.672;23.230;2022-08-11T12:50:57;4.05;;;3.60;;
10987;SDS011;5547;42.672;23.230;2022-08-11T12:53:53;4.00;;;3.60;;
10987;SDS011;5547;42.672;23.230;2022-08-11T12:56:23;4.40;;;3.58;;
10987;SDS011;5547;42.672;23.230;2022-08-11T12:59:11;3.78;;;3.45;;
10987;SDS011;5547;42.672;23.230;2022-08-11T13:01:56;4.00;;;3.70;;
10987;SDS011;5547;42.672;23.230;2022-08-11T13:04:40;3.60;;;3.40;;
10987;SDS011;5547;42.672;23.230;2022-08-11T13:07:23;4.35;;;3.95;;
10987;SDS011;5547;42.672;23.230;2022-08-11T13:09:50;4.28;;;3.88;;
10987;SDS011;5547;42.672;23.230;2022-08-11T13:12:17;4.10;;;3.70;;
10987;SDS011;5547;42.672;23.230;2022-08-11T13:15:02;5.05;;;3.55;;
10987;SDS011;5547;42.672;23.230;2022-08-11T13:17:29;4.30;;;3.77;;
10987;SDS011;5547;42.672;23.230;2022-08-11T13:19:57;3.20;;;2.97;;
10987;SDS011;5547;42.672;23.230;2022-08-11T13:22:24;4.55;;;3.58;;
10987;SDS011;5547;42.672;23.230;2022-08-11T13:24:50;3.92;;;3.60;;
10987;SDS011;5547;42.672;23.230;2022-08-11T13:27:19;3.35;;;3.13;;
10987;SDS011;5547;42.672;23.230;2022-08-11T13:29:45;3.53;;;3.28;;
10987;SDS011;5547;42.672;23.230;2022-08-11T13:32:13;3.40;;;3.10;;
10987;SDS011;5547;42.672;23.230;2022-08-11T13:34:40;3.63;;;3.42;;
10987;SDS011;5547;42.672;23.230;2022-08-11T13:37:10;3.50;;;3.30;;
10987;SDS011;5547;42.672;23.230;2022-08-11T13:39:39;3.60;;;3.38;;
10987;SDS011;5547;42.672;23.230;2022-08-11T13:42:11;3.75;;;3.47;;
10987;SDS011;5547;42.672;23.230;2022-08-11T13:44:39;4.22;;;3.80;;
10987;SDS011;5547;42.672;23.230;2022-08-11T13:47:06;4.80;;;3.50;;
10987;SDS011;5547;42.672;23.230;2022-08-11T13:49:35;3.72;;;3.38;;
10987;SDS011;5547;42.672;23.230;2022-08-11T13:52:03;4.10;;;3.70;;
10987;SDS011;5547;42.672;23.230;2022-08-11T13:54:31;4.00;;;3.65;;
10987;SDS011;5547;42.672;23.230;2022-08-11T13:57:02;3.72;;;3.30;;
10987;SDS011;5547;42.672;23.230;2022-08-11T13:59:30;4.00;;;3.70;;
10987;SDS011;5547;42.672;23.230;2022-08-11T14:01:57;3.92;;;3.63;;
10987;SDS011;5547;42.672;23.230;2022-08-11T14:04:39;3.72;;;3.42;;
10987;SDS011;5547;42.672;23.230;2022-08-11T14:07:09;4.00;;;3.60;;
10987;SDS011;5547;42.672;23.230;2022-08-11T14:09:39;3.42;;;3.20;;
10987;SDS011;5547;42.672;23.230;2022-08-11T14:12:13;3.67;;;3.45;;
10987;SDS011;5547;42.672;23.230;2022-08-11T14:15:09;4.00;;;3.70;;
10987;SDS011;5547;42.672;23.230;2022-08-11T14:17:44;4.10;;;3.80;;
10987;SDS011;5547;42.672;23.230;2022-08-11T14:20:15;5.28;;;3.50;;
10987;SDS011;5547;42.672;23.230;2022-08-11T14:22:44;4.90;;;3.40;;
10987;SDS011;5547;42.672;23.230;2022-08-11T14:25:11;3.60;;;3.40;;
10987;SDS011;5547;42.672;23.230;2022-08-11T14:27:40;3.95;;;3.65;;
10987;SDS011;5547;42.672;23.230;2022-08-11T14:30:07;4.80;;;3.83;;
10987;SDS011;5547;42.672;23.230;2022-08-11T14:32:53;3.20;;;3.00;;
10987;SDS011;5547;42.672;23.230;2022-08-11T14:35:20;3.67;;;3.38;;
10987;SDS011;5547;42.672;23.230;2022-08-11T14:37:46;3.72;;;3.42;;
10987;SDS011;5547;42.672;23.230;2022-08-11T14:40:12;3.92;;;3.63;;
10987;SDS011;5547;42.672;23.230;2022-08-11T14:42:57;3.30;;;3.10;;
10987;SDS011;5547;42.672;23.230;2022-08-11T14:45:42;3.75;;;3.40;;
10987;SDS011;5547;42.672;23.230;2022-08-11T14:48:28;3.70;;;3.40;;
10987;SDS011;5547;42.672;23.230;2022-08-11T14:50:53;4.00;;;3.60;;
10987;SDS011;5547;42.672;23.230;2022-08-11T14:53:21;3.75;;;3.45;;
10987;SDS011;5547;42.672;23.230;2022-08-11T14:55:48;3.80;;;3.53;;
10987;SDS011;5547;42.672;23.230;2022-08-11T14:58:33;3.45;;;3.20;;
10987;SDS011;5547;42.672;23.230;2022-08-11T15:00:59;4.10;;;3.80;;
10987;SDS011;5547;42.672;23.230;2022-08-11T15:03:27;3.83;;;3.63;;
10987;SDS011;5547;42.672;23.230;2022-08-11T15:05:56;4.07;;;3.78;;
10987;SDS011;5547;42.672;23.230;2022-08-11T15:08:34;4.10;;;3.80;;
10987;SDS011;5547;42.672;23.230;2022-08-11T15:11:21;3.80;;;3.60;;
10987;SDS011;5547;42.672;23.230;2022-08-11T15:14:27;4.10;;;3.80;;
10987;SDS011;5547;42.672;23.230;2022-08-11T15:17:11;4.32;;;4.03;;
10987;SDS011;5547;42.672;23.230;2022-08-11T15:19:39;4.32;;;4.03;;
10987;SDS011;5547;42.672;23.230;2022-08-11T15:22:27;4.93;;;4.45;;
10987;SDS011;5547;42.672;23.230;2022-08-11T15:25:12;4.30;;;3.97;;
10987;SDS011;5547;42.672;23.230;2022-08-11T15:27:38;4.20;;;3.90;;
10987;SDS011;5547;42.672;23.230;2022-08-11T15:30:23;4.28;;;3.95;;
10987;SDS011;5547;42.672;23.230;2022-08-11T15:33:09;4.70;;;4.30;;
10987;SDS011;5547;42.672;23.230;2022-08-11T15:35:54;4.47;;;4.18;;
10987;SDS011;5547;42.672;23.230;2022-08-11T15:38:46;3.97;;;3.78;;
10987;SDS011;5547;42.672;23.230;2022-08-11T15:41:16;4.50;;;4.10;;
10987;SDS011;5547;42.672;23.230;2022-08-11T15:44:05;4.88;;;3.70;;
10987;SDS011;5547;42.672;23.230;2022-08-11T15:46:53;3.90;;;3.70;;
10987;SDS011;5547;42.672;23.230;2022-08-11T15:49:29;4.97;;;3.95;;
10987;SDS011;5547;42.672;23.230;2022-08-11T15:54:31;3.97;;;3.67;;
10987;SDS011;5547;42.672;23.230;2022-08-11T15:56:59;5.68;;;3.75;;
10987;SDS011;5547;42.672;23.230;2022-08-11T15:59:26;4.97;;;4.20;;
10987;SDS011;5547;42.672;23.230;2022-08-11T16:02:14;3.80;;;3.50;;
10987;SDS011;5547;42.672;23.230;2022-08-11T16:05:02;4.57;;;3.92;;
10987;SDS011;5547;42.672;23.230;2022-08-11T16:07:32;4.35;;;4.00;;
10987;SDS011;5547;42.672;23.230;2022-08-11T16:10:03;4.10;;;3.70;;
10987;SDS011;5547;42.672;23.230;2022-08-11T16:12:46;3.95;;;3.67;;
10987;SDS011;5547;42.672;23.230;2022-08-11T16:15:32;4.95;;;3.92;;
10987;SDS011;5547;42.672;23.230;2022-08-11T16:18:19;3.88;;;3.47;;
10987;SDS011;5547;42.672;23.230;2022-08-11T16:20:47;4.10;;;3.80;;
10987;SDS011;5547;42.672;23.230;2022-08-11T16:23:15;4.10;;;3.65;;
10987;SDS011;5547;42.672;23.230;2022-08-11T16:25:43;3.90;;;3.70;;
10987;SDS011;5547;42.672;23.230;2022-08-11T16:28:11;4.15;;;3.78;;
10987;SDS011;5547;42.672;23.230;2022-08-11T16:30:38;5.78;;;4.40;;
10987;SDS011;5547;42.672;23.230;2022-08-11T16:33:05;4.53;;;4.10;;
10987;SDS011;5547;42.672;23.230;2022-08-11T16:35:34;5.18;;;4.13;;
10987;SDS011;5547;42.672;23.230;2022-08-11T16:38:20;3.85;;;3.55;;
10987;SDS011;5547;42.672;23.230;2022-08-11T16:40:59;3.90;;;3.60;;
10987;SDS011;5547;42.672;23.230;2022-08-11T16:44:05;3.78;;;3.45;;
10987;SDS011;5547;42.672;23.230;2022-08-11T16:46:52;6.28;;;3.70;;
10987;SDS011;5547;42.672;23.230;2022-08-11T16:49:25;3.28;;;3.03;;
10987;SDS011;5547;42.672;23.230;2022-08-11T16:52:00;3.63;;;3.38;;
10987;SDS011;5547;42.672;23.230;2022-08-11T16:54:28;5.53;;;3.47;;
10987;SDS011;5547;42.672;23.230;2022-08-11T16:56:57;3.88;;;3.60;;
10987;SDS011;5547;42.672;23.230;2022-08-11T16:59:46;3.78;;;3.35;;
10987;SDS011;5547;42.672;23.230;2022-08-11T17:02:17;3.83;;;3.53;;
10987;SDS011;5547;42.672;23.230;2022-08-11T17:05:06;3.70;;;3.40;;
10987;SDS011;5547;42.672;23.230;2022-08-11T17:07:52;5.20;;;3.80;;
10987;SDS011;5547;42.672;23.230;2022-08-11T17:10:43;3.78;;;3.47;;
10987;SDS011;5547;42.672;23.230;2022-08-11T17:13:36;4.13;;;3.83;;
10987;SDS011;5547;42.672;23.230;2022-08-11T17:16:06;3.78;;;3.47;;
10987;SDS011;5547;42.672;23.230;2022-08-11T17:21:10;3.83;;;3.63;;
10987;SDS011;5547;42.672;23.230;2022-08-11T17:23:39;3.95;;;3.60;;
10987;SDS011;5547;42.672;23.230;2022-08-11T17:26:18;4.88;;;3.90;;
10987;SDS011;5547;42.672;23.230;2022-08-11T17:28:47;5.32;;;4.00;;
10987;SDS011;5547;42.672;23.230;2022-08-11T17:31:16;4.43;;;3.80;;
10987;SDS011;5547;42.672;23.230;2022-08-11T17:34:04;4.03;;;3.73;;
10987;SDS011;5547;42.672;23.230;2022-08-11T17:36:49;3.97;;;3.53;;
10987;SDS011;5547;42.672;23.230;2022-08-11T17:39:17;4.33;;;4.03;;
10987;SDS011;5547;42.672;23.230;2022-08-11T17:41:44;4.30;;;3.90;;
10987;SDS011;5547;42.672;23.230;2022-08-11T17:44:29;4.50;;;3.80;;
10987;SDS011;5547;42.672;23.230;2022-08-11T17:47:14;8.57;;;4.00;;
10987;SDS011;5547;42.672;23.230;2022-08-11T17:50:00;4.67;;;4.10;;
10987;SDS011;5547;42.672;23.230;2022-08-11T17:52:27;4.27;;;3.97;;
10987;SDS011;5547;42.672;23.230;2022-08-11T17:55:13;4.77;;;4.20;;
10987;SDS011;5547;42.672;23.230;2022-08-11T17:57:58;4.27;;;3.87;;
10987;SDS011;5547;42.672;23.230;2022-08-11T18:00:43;4.20;;;3.90;;
10987;SDS011;5547;42.672;23.230;2022-08-11T18:03:10;5.93;;;3.93;;
10987;SDS011;5547;42.672;23.230;2022-08-11T18:05:57;4.50;;;4.20;;
10987;SDS011;5547;42.672;23.230;2022-08-11T18:08:25;4.10;;;3.80;;
10987;SDS011;5547;42.672;23.230;2022-08-11T18:11:11;4.50;;;4.10;;
10987;SDS011;5547;42.672;23.230;2022-08-11T18:13:58;5.70;;;3.57;;
10987;SDS011;5547;42.672;23.230;2022-08-11T18:16:52;4.43;;;4.03;;
10987;SDS011;5547;42.672;23.230;2022-08-11T18:19:36;4.10;;;3.80;;
10987;SDS011;5547;42.672;23.230;2022-08-11T18:22:25;4.67;;;3.90;;
10987;SDS011;5547;42.672;23.230;2022-08-11T18:25:15;4.50;;;3.90;;
10987;SDS011;5547;42.672;23.230;2022-08-11T18:28:04;5.87;;;4.13;;
10987;SDS011;5547;42.672;23.230;2022-08-11T18:30:50;5.40;;;3.80;;
10987;SDS011;5547;42.672;23.230;2022-08-11T18:33:37;4.73;;;3.47;;
10987;SDS011;5547;42.672;23.230;2022-08-11T18:36:26;3.73;;;3.40;;
10987;SDS011;5547;42.672;23.230;2022-08-11T18:39:14;3.60;;;3.30;;
10987;SDS011;5547;42.672;23.230;2022-08-11T18:42:04;3.67;;;3.47;;
10987;SDS011;5547;42.672;23.230;2022-08-11T18:44:59;6.03;;;4.00;;
10987;SDS011;5547;42.672;23.230;2022-08-11T18:47:49;4.47;;;4.07;;
10987;SDS011;5547;42.672;23.230;2022-08-11T18:50:35;3.83;;;3.57;;
10987;SDS011;5547;42.672;23.230;2022-08-11T18:53:21;5.33;;;4.80;;
10987;SDS011;5547;42.672;23.230;2022-08-11T18:56:08;4.63;;;4.17;;
10987;SDS011;5547;42.672;23.230;2022-08-11T18:58:53;4.23;;;3.93;;
10987;SDS011;5547;42.672;23.230;2022-08-11T19:01:39;4.33;;;3.97;;
10987;SDS011;5547;42.672;23.230;2022-08-11T19:04:24;4.40;;;4.10;;
10987;SDS011;5547;42.672;23.230;2022-08-11T19:07:09;4.43;;;4.00;;
10987;SDS011;5547;42.672;23.230;2022-08-11T19:09:55;4.90;;;4.10;;
10987;SDS011;5547;42.672;23.230;2022-08-11T19:12:41;4.90;;;4.60;;
10987;SDS011;5547;42.672;23.230;2022-08-11T19:15:27;4.87;;;4.43;;
10987;SDS011;5547;42.672;23.230;2022-08-11T19:18:14;4.80;;;4.23;;